Terminal Aerodrome Forecast
Issued by NWS

Home | Current Version | Previous Version | Graphics & Text | Print | Product List | Glossary On
Versions: 1 2 3 4 5 6 7 8 9 10 11 12 13 14 15 16 17 18 19
000
FTUS43 KMPX 240536
TAFRNH
TAF
KRNH 240536Z 2406/2506 02015G23KT P6SM SCT018 OVC080
      TEMPO 2406/2410 BKN018 OVC080
     FM241800 36016G25KT P6SM SCT025 OVC050
     FM250200 34016G25KT P6SM OVC180=

USA.gov is the U.S. government's official web portal to all federal, state and local government web resources and services.